createdAt,value
2018-12-05T00:00:15.026Z,10.70
2018-12-05T00:02:46.129Z,9.83
2018-12-05T00:05:15.417Z,9.50
2018-12-05T00:07:44.719Z,9.07
2018-12-05T00:10:14.023Z,9.73
2018-12-05T00:12:43.324Z,10.37
2018-12-05T00:15:12.740Z,10.57
2018-12-05T00:17:42.070Z,10.43
2018-12-05T00:20:11.471Z,10.00
2018-12-05T00:22:40.756Z,10.43
2018-12-05T00:25:10.070Z,10.60
2018-12-05T00:27:39.377Z,10.40
2018-12-05T00:30:08.752Z,10.03
2018-12-05T00:32:38.283Z,8.63
2018-12-05T00:35:07.564Z,9.23
2018-12-05T00:37:36.878Z,9.10
2018-12-05T00:40:06.305Z,7.43
2018-12-05T00:42:35.616Z,7.30
2018-12-05T00:45:05.819Z,6.57
2018-12-05T00:47:35.139Z,6.80
2018-12-05T00:50:05.021Z,7.07
2018-12-05T00:52:34.334Z,7.03
2018-12-05T00:55:03.635Z,6.70
2018-12-05T00:57:32.937Z,6.23
2018-12-05T01:00:02.237Z,5.53
2018-12-05T01:02:31.513Z,6.33
2018-12-05T01:05:00.819Z,7.00
2018-12-05T01:07:30.163Z,7.13
2018-12-05T01:09:59.477Z,7.80
2018-12-05T01:12:28.762Z,7.83
2018-12-05T01:14:59.158Z,8.10
2018-12-05T01:17:28.692Z,8.23
2018-12-05T01:19:58.029Z,9.13
2018-12-05T01:22:27.333Z,8.07
2018-12-05T01:24:56.625Z,9.40
2018-12-05T01:27:25.983Z,8.30
2018-12-05T01:29:55.281Z,8.27
2018-12-05T01:32:24.614Z,8.57
2018-12-05T01:34:53.919Z,8.23
2018-12-05T01:37:23.249Z,8.17
2018-12-05T01:39:52.556Z,8.57
2018-12-05T01:42:21.889Z,8.27
2018-12-05T01:44:54.675Z,7.03
2018-12-05T01:47:24.002Z,7.27
2018-12-05T01:49:56.361Z,8.97
2018-12-05T01:52:25.711Z,8.13
2018-12-05T01:54:55.003Z,8.50
2018-12-05T01:57:24.306Z,8.40
2018-12-05T01:59:53.641Z,8.30
2018-12-05T02:02:22.932Z,8.00
2018-12-05T02:04:52.295Z,8.17
2018-12-05T02:07:21.586Z,8.57
2018-12-05T02:09:50.948Z,8.20
2018-12-05T02:12:20.304Z,7.97
2018-12-05T02:14:49.839Z,8.30
2018-12-05T02:17:19.149Z,7.90
2018-12-05T02:19:48.448Z,7.33
2018-12-05T02:22:17.760Z,7.37
2018-12-05T02:24:47.219Z,8.07
2018-12-05T02:27:16.512Z,8.13
2018-12-05T02:29:51.376Z,8.53
2018-12-05T02:32:20.690Z,7.87
2018-12-05T02:34:49.962Z,7.70
2018-12-05T02:37:19.312Z,10.20
2018-12-05T02:39:48.639Z,9.30
2018-12-05T02:42:18.000Z,9.73
2018-12-05T02:44:47.507Z,9.87
2018-12-05T02:47:16.774Z,9.43
2018-12-05T02:49:46.070Z,8.43
2018-12-05T02:52:15.400Z,8.00
2018-12-05T02:54:44.746Z,9.13
2018-12-05T02:57:14.057Z,8.57
2018-12-05T02:59:43.348Z,8.23
2018-12-05T03:02:12.684Z,8.70
2018-12-05T03:04:41.976Z,8.67
2018-12-05T03:07:11.304Z,8.93
2018-12-05T03:09:40.616Z,9.30
2018-12-05T03:12:10.080Z,9.23
2018-12-05T03:14:39.746Z,9.33
2018-12-05T03:17:09.092Z,9.67
2018-12-05T03:19:38.403Z,8.63
2018-12-05T03:22:07.712Z,8.93
2018-12-05T03:24:37.044Z,8.00
2018-12-05T03:27:06.441Z,8.97
2018-12-05T03:29:35.787Z,8.63
2018-12-05T03:32:05.104Z,8.27
2018-12-05T03:34:34.392Z,9.37
2018-12-05T03:37:03.707Z,10.03
2018-12-05T03:39:33.014Z,11.33
2018-12-05T03:42:02.446Z,12.97
2018-12-05T03:44:31.747Z,12.00
2018-12-05T03:47:01.187Z,10.50
2018-12-05T03:49:30.487Z,10.27
2018-12-05T03:52:01.023Z,10.33
2018-12-05T03:54:30.332Z,11.80
2018-12-05T03:56:59.607Z,11.30
2018-12-05T03:59:28.927Z,11.47
2018-12-05T04:01:58.218Z,12.17
2018-12-05T04:04:27.532Z,11.70
2018-12-05T04:06:56.834Z,10.00
2018-12-05T04:09:26.138Z,10.30
2018-12-05T04:11:55.505Z,10.30
2018-12-05T04:14:24.833Z,9.93
2018-12-05T04:16:54.143Z,10.23
2018-12-05T04:19:24.085Z,12.67
2018-12-05T04:21:53.376Z,11.43
2018-12-05T04:24:22.656Z,10.87
2018-12-05T04:26:52.860Z,9.33
2018-12-05T04:29:22.501Z,9.57
2018-12-05T04:31:51.849Z,10.77
2018-12-05T04:34:21.148Z,10.90
2018-12-05T04:36:50.489Z,12.50
2018-12-05T04:39:20.295Z,12.87
2018-12-05T04:41:49.613Z,13.50
2018-12-05T04:44:18.921Z,12.20
2018-12-05T04:46:48.261Z,12.67
2018-12-05T04:49:17.917Z,14.00
2018-12-05T04:51:47.824Z,13.67
2018-12-05T04:54:17.162Z,12.87
2018-12-05T04:56:46.544Z,13.17
2018-12-05T04:59:15.867Z,12.30
2018-12-05T05:01:45.243Z,12.27
2018-12-05T05:04:14.806Z,12.90
2018-12-05T05:06:44.110Z,13.73
2018-12-05T05:09:13.404Z,13.63
2018-12-05T05:11:43.487Z,12.37
2018-12-05T05:14:12.791Z,13.67
2018-12-05T05:16:42.098Z,14.10
2018-12-05T05:19:11.426Z,13.40
2018-12-05T05:21:40.730Z,14.00
2018-12-05T05:24:10.050Z,12.60
2018-12-05T05:26:39.413Z,13.03
2018-12-05T05:29:08.703Z,11.83
2018-12-05T05:31:38.014Z,12.77
2018-12-05T05:34:07.331Z,13.33
2018-12-05T05:36:36.636Z,13.80
2018-12-05T05:39:07.034Z,13.23
2018-12-05T05:41:36.315Z,13.77
2018-12-05T05:44:05.681Z,14.63
2018-12-05T05:46:35.686Z,13.07
2018-12-05T05:49:04.998Z,15.77
2018-12-05T05:51:34.340Z,16.00
2018-12-05T05:54:04.172Z,14.80
2018-12-05T05:56:33.775Z,12.07
2018-12-05T05:59:03.115Z,14.20
2018-12-05T06:01:32.492Z,13.60
2018-12-05T06:04:01.819Z,12.80
2018-12-05T06:06:31.228Z,12.43
2018-12-05T06:09:00.719Z,12.60
2018-12-05T06:11:30.101Z,12.90
2018-12-05T06:13:59.393Z,15.47
2018-12-05T06:16:28.713Z,14.87
2018-12-05T06:18:57.991Z,14.03
2018-12-05T06:21:27.347Z,20.27
2018-12-05T06:23:56.654Z,22.03
2018-12-05T06:26:25.926Z,17.13
2018-12-05T06:28:55.230Z,18.43
2018-12-05T06:31:24.509Z,17.07
2018-12-05T06:33:53.814Z,18.33
2018-12-05T06:36:23.117Z,17.47
2018-12-05T06:38:52.435Z,16.50
2018-12-05T06:41:21.804Z,17.07
2018-12-05T06:43:51.971Z,15.90
2018-12-05T06:46:21.234Z,16.53
2018-12-05T06:48:50.522Z,15.10
2018-12-05T06:51:25.296Z,15.77
2018-12-05T06:53:54.609Z,15.87
2018-12-05T06:56:23.914Z,14.50
2018-12-05T06:58:53.231Z,16.70
2018-12-05T07:01:22.488Z,15.90
2018-12-05T07:03:51.780Z,15.53
2018-12-05T07:06:21.081Z,14.53
2018-12-05T07:08:50.383Z,14.53
2018-12-05T07:11:19.701Z,16.40
2018-12-05T07:13:49.026Z,16.23
2018-12-05T07:16:18.398Z,15.30
2018-12-05T07:18:47.737Z,15.97
2018-12-05T07:21:17.059Z,16.37
2018-12-05T07:23:46.361Z,14.87
2018-12-05T07:26:15.732Z,15.53
2018-12-05T07:28:45.251Z,16.23
2018-12-05T07:31:14.672Z,15.10
2018-12-05T07:33:43.982Z,15.07
2018-12-05T07:36:13.284Z,16.53
2018-12-05T07:38:43.499Z,15.03
2018-12-05T07:41:12.826Z,14.60
2018-12-05T07:43:42.148Z,14.37
2018-12-05T07:46:11.443Z,13.60
2018-12-05T07:48:40.788Z,15.10
2018-12-05T07:51:10.053Z,14.57
2018-12-05T07:53:39.373Z,13.70
2018-12-05T07:56:08.671Z,14.40
2018-12-05T07:58:37.931Z,14.50
2018-12-05T08:01:07.436Z,13.97
2018-12-05T08:03:36.753Z,15.03
2018-12-05T08:06:06.037Z,13.83
2018-12-05T08:08:35.584Z,14.63
2018-12-05T08:11:04.871Z,14.33
2018-12-05T08:13:34.796Z,15.67
2018-12-05T08:16:04.091Z,13.50
2018-12-05T08:18:33.844Z,15.23
2018-12-05T08:21:03.123Z,14.53
2018-12-05T08:23:32.448Z,14.57
2018-12-05T08:26:01.795Z,14.47
2018-12-05T08:28:31.959Z,14.67
2018-12-05T08:31:01.277Z,14.90
2018-12-05T08:33:30.581Z,14.33
2018-12-05T08:35:59.987Z,15.57
2018-12-05T08:38:29.478Z,14.87
2018-12-05T08:40:58.989Z,14.90
2018-12-05T08:43:28.329Z,13.53
2018-12-05T08:45:57.634Z,14.73
2018-12-05T08:48:27.005Z,14.33
2018-12-05T08:50:56.408Z,13.70
2018-12-05T08:53:26.124Z,14.40
2018-12-05T08:55:56.528Z,13.37
2018-12-05T08:58:25.829Z,14.53
2018-12-05T09:00:55.443Z,13.73
2018-12-05T09:03:24.791Z,15.00
2018-12-05T09:05:54.128Z,12.40
2018-12-05T09:08:23.398Z,13.47
2018-12-05T09:10:52.703Z,12.87
2018-12-05T09:13:22.021Z,14.17
2018-12-05T09:15:51.338Z,13.43
2018-12-05T09:18:21.588Z,12.77
2018-12-05T09:20:50.909Z,13.03
2018-12-05T09:23:20.469Z,14.23
2018-12-05T09:25:49.799Z,13.23
2018-12-05T09:28:19.139Z,12.83
2018-12-05T09:30:48.457Z,13.40
2018-12-05T09:33:18.090Z,13.63
2018-12-05T09:35:48.463Z,13.30
2018-12-05T09:38:17.770Z,12.97
2018-12-05T09:40:47.058Z,13.40
2018-12-05T09:43:16.363Z,12.53
2018-12-05T09:45:45.668Z,13.63
2018-12-05T09:48:14.969Z,14.83
2018-12-05T09:50:44.315Z,14.17
2018-12-05T09:53:13.642Z,15.97
2018-12-05T09:55:43.033Z,14.00
2018-12-05T09:58:13.815Z,13.57
2018-12-05T10:00:43.189Z,14.20
2018-12-05T10:03:12.497Z,13.80
2018-12-05T10:05:41.830Z,13.67
2018-12-05T10:08:11.263Z,13.30
2018-12-05T10:10:40.590Z,13.53
2018-12-05T10:13:09.897Z,12.60
2018-12-05T10:15:39.204Z,12.47
2018-12-05T10:18:08.535Z,12.17
2018-12-05T10:20:37.842Z,12.10
2018-12-05T10:23:08.061Z,11.87
2018-12-05T10:25:37.687Z,12.50
2018-12-05T10:28:07.013Z,13.00
2018-12-05T10:30:36.300Z,12.80
2018-12-05T10:33:07.631Z,12.50
2018-12-05T10:35:36.928Z,14.47
2018-12-05T10:38:06.255Z,12.53
2018-12-05T10:40:35.630Z,12.57
2018-12-05T10:43:05.211Z,13.80
2018-12-05T10:45:35.124Z,13.73
2018-12-05T10:48:04.467Z,13.43
2018-12-05T10:50:33.827Z,12.17
2018-12-05T10:53:03.166Z,11.80
2018-12-05T10:55:32.585Z,11.50
2018-12-05T10:58:01.857Z,12.10
2018-12-05T11:03:36.130Z,13.13
2018-12-05T11:06:10.940Z,14.77
2018-12-05T11:08:45.862Z,13.93
2018-12-05T11:11:20.688Z,13.17
2018-12-05T11:13:55.534Z,13.40
2018-12-05T11:16:30.476Z,13.93
2018-12-05T11:19:05.218Z,14.10
2018-12-05T11:21:40.438Z,14.93
2018-12-05T11:24:11.455Z,14.23
2018-12-05T11:26:40.874Z,14.47
2018-12-05T11:29:10.268Z,14.47
2018-12-05T11:31:39.601Z,13.63
2018-12-05T11:34:08.915Z,14.20
2018-12-05T11:36:38.212Z,14.13
2018-12-05T11:39:07.742Z,14.60
2018-12-05T11:41:37.050Z,15.23
2018-12-05T11:44:06.438Z,15.83
2018-12-05T11:46:35.775Z,16.53
2018-12-05T11:49:05.075Z,17.43
2018-12-05T11:51:34.411Z,16.83
2018-12-05T11:54:03.846Z,17.60
2018-12-05T11:56:33.154Z,17.50
2018-12-05T11:59:02.520Z,17.80
2018-12-05T12:01:31.822Z,19.13
2018-12-05T12:04:01.118Z,18.83
2018-12-05T12:06:30.413Z,17.60
2018-12-05T12:08:59.730Z,17.87
2018-12-05T12:11:29.028Z,18.70
2018-12-05T12:13:59.228Z,18.47
2018-12-05T12:16:28.502Z,18.23
2018-12-05T12:18:57.792Z,17.23
2018-12-05T12:21:27.129Z,19.80
2018-12-05T12:23:56.479Z,18.43
2018-12-05T12:26:32.929Z,18.80
2018-12-05T12:28:58.234Z,18.17
2018-12-05T12:31:27.553Z,18.83
2018-12-05T12:33:56.908Z,18.20
2018-12-05T12:36:26.242Z,18.87
2018-12-05T12:38:56.839Z,19.00
2018-12-05T12:41:26.204Z,18.53
2018-12-05T12:43:55.658Z,18.53
2018-12-05T12:46:24.940Z,18.60
2018-12-05T12:48:54.256Z,18.30
2018-12-05T12:51:23.761Z,17.80
2018-12-05T12:53:53.317Z,19.10
2018-12-05T12:56:22.590Z,19.60
2018-12-05T12:58:51.987Z,21.00
2018-12-05T13:01:22.208Z,20.30
2018-12-05T13:03:51.472Z,19.20
2018-12-05T13:06:20.770Z,21.77
2018-12-05T13:08:50.822Z,21.23
2018-12-05T13:11:20.162Z,20.13
2018-12-05T13:13:49.437Z,19.30
2018-12-05T13:16:19.239Z,20.63
2018-12-05T13:18:48.554Z,20.40
2018-12-05T13:21:18.008Z,18.83
2018-12-05T13:23:50.474Z,20.00
2018-12-05T13:26:19.775Z,20.57
2018-12-05T13:28:49.173Z,20.27
2018-12-05T13:31:19.450Z,20.87
2018-12-05T13:33:48.831Z,21.43
2018-12-05T13:36:18.162Z,20.00
2018-12-05T13:38:47.526Z,19.20
2018-12-05T13:41:16.830Z,19.47
2018-12-05T13:43:46.135Z,20.20
2018-12-05T13:46:15.500Z,20.07
2018-12-05T13:48:45.821Z,20.27
2018-12-05T13:51:16.017Z,21.07
2018-12-05T13:53:46.239Z,20.33
2018-12-05T13:56:15.600Z,20.57
2018-12-05T13:58:44.921Z,21.70
2018-12-05T14:01:14.267Z,21.80
2018-12-05T14:03:43.613Z,22.67
2018-12-05T14:06:13.073Z,21.27
2018-12-05T14:08:42.414Z,22.90
2018-12-05T14:11:11.757Z,21.93
2018-12-05T14:13:41.061Z,21.20
2018-12-05T14:16:10.401Z,21.50
2018-12-05T14:18:39.724Z,22.87
2018-12-05T14:21:09.048Z,23.77
2018-12-05T14:23:38.342Z,22.63
2018-12-05T14:26:07.736Z,22.37
2018-12-05T14:28:37.035Z,21.93
2018-12-05T14:31:06.988Z,23.33
2018-12-05T14:33:36.302Z,21.80
2018-12-05T14:36:05.591Z,22.30
2018-12-05T14:38:34.914Z,23.40
2018-12-05T14:41:04.254Z,22.40
2018-12-05T14:43:33.775Z,23.50
2018-12-05T14:46:03.112Z,27.90
2018-12-05T14:48:32.535Z,22.40
2018-12-05T14:51:01.785Z,21.57
2018-12-05T14:53:31.094Z,24.20
2018-12-05T14:56:00.393Z,21.43
2018-12-05T14:58:29.734Z,20.90
2018-12-05T15:00:59.031Z,21.97
2018-12-05T15:03:28.335Z,22.90
2018-12-05T15:05:57.633Z,22.27
2018-12-05T15:08:26.941Z,22.20
2018-12-05T15:10:56.258Z,23.17
2018-12-05T15:13:25.662Z,22.40
2018-12-05T15:15:54.991Z,22.77
2018-12-05T15:18:24.283Z,22.17
2018-12-05T15:20:53.610Z,22.07
2018-12-05T15:23:23.001Z,23.20
2018-12-05T15:25:52.284Z,22.53
2018-12-05T15:28:21.769Z,24.37
2018-12-05T15:30:51.150Z,23.07
2018-12-05T15:33:20.462Z,22.43
2018-12-05T15:35:50.248Z,23.43
2018-12-05T15:38:19.559Z,24.10
2018-12-05T15:40:48.873Z,23.67
2018-12-05T15:43:18.242Z,22.93
2018-12-05T15:45:47.587Z,37.37
2018-12-05T15:48:16.946Z,34.80
2018-12-05T15:50:46.343Z,24.87
2018-12-05T15:53:15.812Z,23.20
2018-12-05T15:55:45.106Z,24.80
2018-12-05T15:58:14.410Z,23.30
2018-12-05T16:00:43.794Z,21.20
2018-12-05T16:03:13.083Z,19.57
2018-12-05T16:05:42.404Z,19.47
2018-12-05T16:08:11.699Z,18.23
2018-12-05T16:10:41.214Z,19.07
2018-12-05T16:13:11.042Z,19.13
2018-12-05T16:15:40.408Z,17.40
2018-12-05T16:18:09.742Z,17.17
2018-12-05T16:20:39.034Z,16.83
2018-12-05T16:23:08.334Z,16.10
2018-12-05T16:25:37.630Z,17.00
2018-12-05T16:28:06.946Z,16.77
2018-12-05T16:30:36.317Z,17.93
2018-12-05T16:33:05.648Z,17.73
2018-12-05T16:35:34.965Z,16.40
2018-12-05T16:38:04.350Z,15.37
2018-12-05T16:40:33.653Z,15.73
2018-12-05T16:43:02.960Z,15.70
2018-12-05T16:45:32.342Z,17.07
2018-12-05T16:48:01.679Z,17.83
2018-12-05T16:50:30.995Z,16.03
2018-12-05T16:53:00.351Z,15.93
2018-12-05T16:55:29.714Z,15.17
2018-12-05T16:57:59.050Z,17.10
2018-12-05T17:00:28.361Z,15.53
2018-12-05T17:02:57.730Z,16.60
2018-12-05T17:05:27.013Z,15.77
2018-12-05T17:07:56.315Z,16.07
2018-12-05T17:10:25.620Z,15.53
2018-12-05T17:12:54.917Z,15.43
2018-12-05T17:15:24.186Z,16.80
2018-12-05T17:17:53.601Z,16.50
2018-12-05T17:20:22.923Z,16.93
2018-12-05T17:22:52.260Z,15.93
2018-12-05T17:25:21.554Z,16.27
2018-12-05T17:27:50.891Z,16.33
2018-12-05T17:30:20.182Z,17.33
2018-12-05T17:32:49.468Z,16.20
2018-12-05T17:35:18.788Z,15.63
2018-12-05T17:37:48.019Z,16.77
2018-12-05T17:40:17.357Z,16.07
2018-12-05T17:42:46.653Z,16.07
2018-12-05T17:45:15.960Z,15.70
2018-12-05T17:47:45.292Z,18.70
2018-12-05T17:50:14.601Z,16.70
2018-12-05T17:52:43.912Z,16.97
2018-12-05T17:55:13.268Z,16.53
2018-12-05T17:57:42.585Z,16.43
2018-12-05T18:00:11.947Z,16.53
2018-12-05T18:02:41.267Z,16.30
2018-12-05T18:05:10.575Z,16.17
2018-12-05T18:07:43.060Z,16.03
2018-12-05T18:10:12.367Z,18.37
2018-12-05T18:12:41.670Z,17.47
2018-12-05T18:15:10.985Z,16.00
2018-12-05T18:17:40.380Z,15.10
2018-12-05T18:20:10.878Z,16.67
2018-12-05T18:22:40.284Z,16.37
2018-12-05T18:25:09.590Z,15.73
2018-12-05T18:27:38.896Z,17.13
2018-12-05T18:30:08.495Z,15.23
2018-12-05T18:32:37.939Z,15.50
2018-12-05T18:35:07.376Z,15.50
2018-12-05T18:37:37.185Z,16.00
2018-12-05T18:40:06.576Z,15.93
2018-12-05T18:42:35.897Z,15.37
2018-12-05T18:45:05.911Z,16.17
2018-12-05T18:47:35.373Z,16.80
2018-12-05T18:50:06.311Z,16.17
2018-12-05T18:52:35.621Z,14.73
2018-12-05T18:55:05.329Z,15.10
2018-12-05T18:57:34.673Z,15.23
2018-12-05T19:00:05.204Z,16.03
2018-12-05T19:02:34.542Z,15.70
2018-12-05T19:05:04.294Z,16.07
2018-12-05T19:07:33.576Z,15.50
2018-12-05T19:10:03.200Z,15.57
2018-12-05T19:12:34.133Z,16.63
2018-12-05T19:15:03.534Z,15.17
2018-12-05T19:17:32.826Z,16.20
2018-12-05T19:20:02.204Z,16.17
2018-12-05T19:22:31.943Z,15.47
2018-12-05T19:25:01.327Z,16.43
2018-12-05T19:27:30.730Z,15.57
2018-12-05T19:30:00.262Z,15.73
2018-12-05T19:32:29.589Z,16.27
2018-12-05T19:34:58.923Z,16.50
2018-12-05T19:37:28.272Z,16.80
2018-12-05T19:39:57.634Z,17.90
2018-12-05T19:42:27.548Z,16.47
2018-12-05T19:44:56.847Z,16.77
2018-12-05T19:47:26.178Z,17.83
2018-12-05T19:49:55.522Z,16.30
2018-12-05T19:52:24.855Z,16.70
2018-12-05T19:54:54.160Z,16.83
2018-12-05T19:57:23.478Z,16.63
2018-12-05T19:59:52.794Z,17.00
2018-12-05T20:02:22.095Z,17.53
2018-12-05T20:04:57.323Z,16.70
2018-12-05T20:07:26.630Z,16.80
2018-12-05T20:09:55.994Z,16.70
2018-12-05T20:12:25.325Z,16.80
2018-12-05T20:14:54.649Z,16.73
2018-12-05T20:17:23.980Z,17.53
2018-12-05T20:19:53.535Z,17.40
2018-12-05T20:22:22.859Z,17.90
2018-12-05T20:24:52.174Z,17.60
2018-12-05T20:27:21.501Z,17.20
2018-12-05T20:29:50.790Z,16.27
2018-12-05T20:32:20.132Z,17.10
2018-12-05T20:34:49.469Z,16.37
2018-12-05T20:37:18.794Z,17.03
2018-12-05T20:39:48.170Z,17.13
2018-12-05T20:42:17.535Z,17.30
2018-12-05T20:44:46.872Z,16.57
2018-12-05T20:47:16.244Z,17.80
2018-12-05T20:49:45.568Z,17.47
2018-12-05T20:52:14.925Z,16.40
2018-12-05T20:54:44.396Z,17.13
2018-12-05T20:57:13.684Z,17.23
2018-12-05T20:59:43.208Z,16.83
2018-12-05T21:02:12.795Z,16.97
2018-12-05T21:04:42.112Z,17.30
2018-12-05T21:07:11.450Z,18.17
2018-12-05T21:09:41.044Z,17.80
2018-12-05T21:12:10.369Z,17.40
2018-12-05T21:14:39.690Z,17.77
2018-12-05T21:17:09.028Z,17.20
2018-12-05T21:19:38.304Z,18.43
2018-12-05T21:22:07.614Z,18.47
2018-12-05T21:24:36.902Z,17.57
2018-12-05T21:27:06.291Z,17.37
2018-12-05T21:29:35.647Z,18.67
2018-12-05T21:32:05.258Z,21.90
2018-12-05T21:34:34.584Z,18.80
2018-12-05T21:37:03.873Z,17.07
2018-12-05T21:39:33.235Z,16.83
2018-12-05T21:42:02.811Z,17.27
2018-12-05T21:44:32.102Z,17.07
2018-12-05T21:47:01.433Z,16.90
2018-12-05T21:49:30.764Z,17.07
2018-12-05T21:52:00.086Z,16.23
2018-12-05T21:54:29.662Z,16.90
2018-12-05T21:56:58.985Z,16.43
2018-12-05T21:59:28.289Z,16.90
2018-12-05T22:01:57.588Z,17.17
2018-12-05T22:04:26.979Z,16.50
2018-12-05T22:06:56.376Z,16.77
2018-12-05T22:09:25.887Z,17.20
2018-12-05T22:11:55.215Z,17.67
2018-12-05T22:14:24.519Z,17.37
2018-12-05T22:16:53.855Z,17.00
2018-12-05T22:19:23.157Z,17.23
2018-12-05T22:21:52.452Z,17.20
2018-12-05T22:24:21.768Z,19.23
2018-12-05T22:26:51.063Z,19.27
2018-12-05T22:29:20.403Z,16.77
2018-12-05T22:31:49.726Z,19.13
2018-12-05T22:34:19.066Z,18.67
2018-12-05T22:36:48.342Z,25.67
2018-12-05T22:39:17.642Z,17.93
2018-12-05T22:41:46.960Z,18.57
2018-12-05T22:44:16.332Z,20.80
2018-12-05T22:46:45.869Z,18.87
2018-12-05T22:49:15.190Z,35.47
2018-12-05T22:51:44.514Z,19.33
2018-12-05T22:54:13.807Z,18.20
2018-12-05T22:56:47.192Z,18.07
2018-12-05T22:59:16.487Z,23.20
2018-12-05T23:01:45.811Z,20.73
2018-12-05T23:04:15.130Z,20.23
2018-12-05T23:06:44.441Z,19.90
2018-12-05T23:09:13.770Z,18.20
2018-12-05T23:11:43.089Z,19.13
2018-12-05T23:14:12.402Z,20.67
2018-12-05T23:16:41.708Z,27.73
2018-12-05T23:19:11.091Z,19.70
2018-12-05T23:21:40.453Z,20.70
2018-12-05T23:24:09.771Z,20.17
2018-12-05T23:26:39.084Z,19.70
2018-12-05T23:29:08.423Z,21.00
2018-12-05T23:31:37.761Z,20.90
2018-12-05T23:34:07.106Z,19.30
2018-12-05T23:36:36.421Z,19.93
2018-12-05T23:39:07.381Z,19.47
2018-12-05T23:41:36.782Z,19.80
2018-12-05T23:44:06.146Z,19.60
2018-12-05T23:46:35.461Z,19.20
2018-12-05T23:49:04.756Z,20.37
2018-12-05T23:51:34.070Z,21.43
2018-12-05T23:54:03.394Z,20.47
2018-12-05T23:56:32.682Z,20.70
2018-12-05T23:59:01.996Z,20.90
